createdAt,value
2023-03-23T06:02:58.804Z,3.65
2023-03-23T06:05:36.807Z,3.50
2023-03-23T06:08:08.487Z,3.60
2023-03-23T06:10:44.865Z,3.58
2023-03-23T06:13:15.508Z,3.35
2023-03-23T06:15:51.842Z,3.97
2023-03-23T06:18:24.809Z,4.50
2023-03-23T06:21:01.989Z,4.55
2023-03-23T06:23:32.335Z,4.53
2023-03-23T06:26:12.910Z,5.15
2023-03-23T06:28:42.971Z,4.65
2023-03-23T06:31:19.902Z,4.82
2023-03-23T06:33:58.856Z,4.82
2023-03-23T06:36:29.733Z,4.68
2023-03-23T06:39:06.984Z,4.28
2023-03-23T06:41:37.841Z,4.47
2023-03-23T06:44:15.897Z,4.53
2023-03-23T06:46:46.760Z,4.40
2023-03-23T06:49:25.934Z,3.63
2023-03-23T06:52:03.936Z,5.03
2023-03-23T06:54:34.150Z,4.55
2023-03-23T06:57:10.944Z,4.70
2023-03-23T06:59:41.200Z,3.95
2023-03-23T07:02:20.140Z,4.00
2023-03-23T07:04:52.903Z,3.80
2023-03-23T07:07:29.941Z,3.40
2023-03-23T07:10:00.270Z,3.83
2023-03-23T07:12:36.929Z,3.63
2023-03-23T07:15:09.190Z,3.58
2023-03-23T07:17:45.928Z,3.70
2023-03-23T07:20:19.151Z,3.20
2023-03-23T07:22:56.034Z,3.80
2023-03-23T07:25:32.970Z,3.47
2023-03-23T07:28:03.572Z,3.60
2023-03-23T07:30:40.961Z,3.33
2023-03-23T07:33:13.266Z,3.40
2023-03-23T07:35:52.976Z,3.42
2023-03-23T07:38:23.729Z,3.47
2023-03-23T07:41:00.981Z,3.30
2023-03-23T07:43:31.543Z,3.70
2023-03-23T07:46:07.962Z,3.85
2023-03-23T07:48:38.963Z,3.28
2023-03-23T07:51:17.995Z,3.20
2023-03-23T07:53:48.480Z,3.00
2023-03-23T07:56:26.966Z,3.15
2023-03-23T07:59:04.003Z,3.08
2023-03-23T08:01:34.239Z,3.17
2023-03-23T08:04:10.996Z,2.88
2023-03-23T08:06:43.826Z,3.45
2023-03-23T08:09:21.045Z,3.13
2023-03-23T08:11:51.719Z,3.20
2023-03-23T08:14:28.046Z,3.22
2023-03-23T08:16:59.878Z,3.17
2023-03-23T08:19:37.111Z,3.88
2023-03-23T08:22:17.033Z,3.35
2023-03-23T08:24:47.228Z,3.55
2023-03-23T08:27:24.082Z,3.35
2023-03-23T08:30:01.043Z,3.17
2023-03-23T08:32:31.186Z,3.45
2023-03-23T08:35:11.004Z,2.70
2023-03-23T08:37:45.258Z,2.90
2023-03-23T08:40:27.092Z,3.50
2023-03-23T08:43:04.024Z,3.45
2023-03-23T08:45:34.639Z,3.20
2023-03-23T08:48:11.023Z,3.08
2023-03-23T08:50:49.082Z,3.50
2023-03-23T08:53:22.381Z,3.58
2023-03-23T08:55:59.151Z,3.53
2023-03-23T08:58:32.468Z,3.15
2023-03-23T09:01:09.139Z,2.92
2023-03-23T09:03:48.131Z,2.95
2023-03-23T09:06:18.516Z,2.80
2023-03-23T09:08:58.061Z,3.10
2023-03-23T09:11:35.068Z,3.05
2023-03-23T09:14:13.114Z,2.72
2023-03-23T09:16:43.936Z,3.53
2023-03-23T09:19:21.206Z,3.17
2023-03-23T09:21:58.077Z,3.55
2023-03-23T09:24:31.298Z,3.55
2023-03-23T09:27:09.110Z,3.35
2023-03-23T09:29:46.086Z,3.70
2023-03-23T09:32:23.143Z,3.50
2023-03-23T09:35:03.225Z,3.53
2023-03-23T09:37:42.139Z,3.25
2023-03-23T09:40:20.856Z,3.40
2023-03-23T09:43:16.120Z,3.50
2023-03-23T09:45:59.814Z,3.33
2023-03-23T09:49:00.165Z,3.05
2023-03-23T09:51:44.298Z,3.45
2023-03-23T09:54:30.241Z,3.20
2023-03-23T09:57:04.930Z,3.33
2023-03-23T09:59:49.417Z,3.17
2023-03-23T10:02:35.997Z,3.70
2023-03-23T10:05:36.113Z,3.40
2023-03-23T10:08:21.179Z,2.90
2023-03-23T10:11:08.161Z,3.30
2023-03-23T10:14:08.760Z,2.78
2023-03-23T10:16:51.191Z,3.03
2023-03-23T10:19:31.939Z,2.90
2023-03-23T10:22:16.197Z,3.28
2023-03-23T10:24:53.818Z,2.88
2023-03-23T10:27:40.276Z,2.72
2023-03-23T10:30:24.019Z,3.03
2023-03-23T10:33:06.469Z,3.58
2023-03-23T10:35:44.364Z,3.75
2023-03-23T10:38:26.240Z,3.53
2023-03-23T10:41:06.399Z,3.50
2023-03-23T10:43:43.298Z,3.42
2023-03-23T10:46:34.723Z,3.20
2023-03-23T10:49:19.251Z,3.40
2023-03-23T10:52:03.603Z,3.80
2023-03-23T10:54:51.219Z,3.83
2023-03-23T10:57:29.780Z,3.15
2023-03-23T11:00:16.281Z,3.78
2023-03-23T11:03:07.229Z,3.97
2023-03-23T11:05:42.214Z,3.10
2023-03-23T11:08:24.854Z,3.60
2023-03-23T11:10:58.822Z,3.70
2023-03-23T11:13:42.264Z,3.47
2023-03-23T11:16:13.567Z,3.42
2023-03-23T11:18:54.238Z,3.42
2023-03-23T11:21:27.233Z,3.17
2023-03-23T11:24:10.385Z,3.45
2023-03-23T11:26:50.287Z,3.10
2023-03-23T11:29:36.291Z,3.42
2023-03-23T11:32:17.281Z,3.70
2023-03-23T11:34:55.525Z,3.63
2023-03-23T11:37:40.328Z,3.55
2023-03-23T11:40:28.296Z,3.40
2023-03-23T11:43:11.278Z,3.42
2023-03-23T11:45:49.994Z,3.75
2023-03-23T11:48:37.318Z,3.50
2023-03-23T11:51:22.435Z,3.70
2023-03-23T11:54:04.143Z,4.38
2023-03-23T11:56:46.293Z,3.50
2023-03-23T11:59:21.569Z,3.33
2023-03-23T12:02:14.988Z,3.70
2023-03-23T12:05:11.658Z,2.92
2023-03-23T12:08:08.345Z,2.88
2023-03-23T12:14:00.318Z,2.80
2023-03-23T12:16:51.375Z,3.40
2023-03-23T12:19:37.490Z,2.93
2023-03-23T12:22:41.369Z,3.17
2023-03-23T12:25:49.397Z,3.40
2023-03-23T12:28:36.645Z,2.60
2023-03-23T12:31:24.338Z,2.50
2023-03-23T12:34:03.047Z,2.67
2023-03-23T12:36:57.490Z,2.40
2023-03-23T12:39:57.200Z,2.33
2023-03-23T12:42:50.357Z,2.53
2023-03-23T12:45:35.352Z,2.42
2023-03-23T12:48:11.155Z,2.67
2023-03-23T12:50:54.660Z,2.20
2023-03-23T12:53:32.490Z,2.20
2023-03-23T12:56:23.439Z,2.60
2023-03-23T12:59:17.865Z,2.60
2023-03-23T13:01:59.374Z,2.40
2023-03-23T13:04:37.286Z,2.20
2023-03-23T13:07:20.457Z,2.65
2023-03-23T13:10:05.349Z,2.50
2023-03-23T13:12:40.369Z,2.30
2023-03-23T13:15:36.512Z,2.42
2023-03-23T13:18:25.449Z,2.58
2023-03-23T13:21:06.564Z,2.30
2023-03-23T13:23:49.486Z,2.40
2023-03-23T13:26:24.797Z,2.65
2023-03-23T13:29:11.456Z,2.60
2023-03-23T13:31:45.829Z,2.35
2023-03-23T13:34:28.470Z,2.80
2023-03-23T13:37:04.095Z,2.60
2023-03-23T13:39:44.449Z,2.70
2023-03-23T13:42:31.511Z,2.78
2023-03-23T13:45:31.507Z,2.88
2023-03-23T13:48:26.278Z,2.70
2023-03-23T13:51:06.466Z,2.35
2023-03-23T13:53:55.461Z,3.05
2023-03-23T13:56:39.895Z,3.13
2023-03-23T13:59:22.465Z,2.45
